Latest Weather Observations for Melbourne Airport

IDV60901

Issued at 11:41 am EST Tuesday 27 June 2017 (issued every 10 minutes, with the page automatically refreshed every 10 minutes)

About weather observations | Map of Melbourne area stations | Latest observations for Melbourne area | Other Formats
Station Details ID: 086282 Name: MELBOURNE AIRPORT Lat: -37.67 Lon: 144.83 Height: 113.4 m
Data from the previous 72 hours. | See also: Recent months at Melbourne Airport
Date/Time
EST
Temp
°C
App
Temp
°C
Dew
Point
°C
Rel
Hum
%
Delta-T
°C
Wind Press
QNH
hPa
Press
MSL
hPa
Rain since
9am
mm
Dir  Spd
km/h
Gust
km/h
Spd
kts
Gust
kts
27/11:30am 9.5 5.3 5.8 78 1.7 N 17 20 9 11 1025.4 1025.6 0.0
27/11:00am 9.4 5.1 5.4 76 1.8 N 17 24 9 13 1025.8 1026.0 0.0
27/10:30am 9.0 4.7 5.2 77 1.7 N 17 24 9 13 1025.9 1026.1 0.0
27/10:00am 9.2 4.5 5.0 75 1.9 N 19 24 10 13 1025.8 1026.0 0.0
27/09:30am 8.6 4.2 4.8 77 1.7 N 17 24 9 13 1025.6 1025.8 0.0
27/09:00am 8.8 5.7 5.7 81 1.4 N 11 17 6 9 1025.8 1026.0 0.2
27/08:30am 8.4 5.0 6.0 85 1.1 NNE 13 15 7 8 1025.5 1025.7 0.2
27/08:00am 7.5 3.7 5.7 88 0.8 N 15 17 8 9 1025.6 1025.8 0.2
27/07:30am 7.1 4.9 5.5 89 0.7 N 6 9 3 5 1025.5 1025.7 0.2
27/07:00am 7.0 4.2 5.2 88 0.8 NNE 9 11 5 6 1025.4 1025.6 0.2
27/06:30am 6.9 4.4 4.6 85 1.0 NNW 7 9 4 5 1025.4 1025.6 0.2
27/06:00am 7.0 4.1 4.7 85 1.0 N 9 11 5 6 1025.1 1025.3 0.2
27/05:30am 7.2 3.9 4.4 82 1.2 N 11 13 6 7 1025.2 1025.4 0.2
27/05:00am 7.1 3.0 4.6 84 1.1 N 15 17 8 9 1025.2 1025.4 0.2
27/04:30am 6.8 2.9 5.4 91 0.6 N 15 17 8 9 1025.3 1025.5 0.2
27/04:00am 6.4 2.4 5.0 91 0.6 N 15 19 8 10 1025.5 1025.7 0.2
27/03:30am 6.4 3.6 5.3 93 0.5 N 9 15 5 8 1025.6 1025.8 0.2
27/03:00am 7.3 5.0 5.7 89 0.7 N 7 9 4 5 1025.7 1025.9 0.2
27/02:30am 7.8 5.3 6.5 91 0.6 N 9 13 5 7 1025.7 1025.9 0.2
27/02:00am 8.2 5.0 6.7 90 0.7 N 13 15 7 8 1025.8 1026.0 0.2
27/01:30am 8.2 5.7 6.7 90 0.7 N 9 13 5 7 1025.7 1025.9 0.2
27/01:00am 8.2 7.4 6.7 90 0.7 CALM 0 0 0 0 1025.5 1025.7 0.2
27/12:30am 8.0 7.3 6.9 93 0.5 CALM 0 0 0 0 1025.5 1025.7 0.2
27/12:00am 8.7 7.9 6.5 86 1.0 CALM 0 0 0 0 1025.9 1026.1 0.2
 
Date/Time
EST
Temp
°C
App
Temp
°C
Dew
Point
°C
Rel
Hum
%
Delta-T
°C
Wind Press
QNH
hPa
Press
MSL
hPa
Rain since
9am
mm
Dir  Spd
km/h
Gust
km/h
Spd
kts
Gust
kts
26/11:30pm 8.4 7.7 6.9 90 0.7 CALM 0 0 0 0 1025.8 1026.0 0.2
26/11:00pm 8.3 7.7 7.2 93 0.5 CALM 0 0 0 0 1026.0 1026.2 0.2
26/10:30pm 8.6 7.9 6.9 89 0.8 CALM 0 0 0 0 1026.1 1026.3 0.2
26/10:00pm 8.7 8.0 7.0 89 0.8 CALM 0 0 0 0 1026.0 1026.2 0.2
26/09:30pm 9.2 7.3 6.6 84 1.2 W 6 7 3 4 1026.1 1026.3 0.2
26/09:00pm 8.9 7.5 7.2 89 0.8 NW 4 9 2 5 1026.3 1026.5 0.2
26/08:30pm 9.4 8.7 7.1 85 1.1 CALM 0 0 0 0 1026.2 1026.4 0.2
26/08:00pm 9.1 8.5 7.4 89 0.8 CALM 0 0 0 0 1026.0 1026.2 0.2
26/07:30pm 9.6 7.9 7.5 87 1.0 NNW 6 7 3 4 1025.9 1026.1 0.2
26/07:00pm 9.7 8.0 7.4 85 1.1 N 6 7 3 4 1025.8 1026.0 0.2
26/06:30pm 9.6 7.9 7.5 87 1.0 N 6 6 3 3 1025.5 1025.7 0.2
26/06:00pm 10.1 8.1 7.1 81 1.4 N 7 7 4 4 1025.2 1025.4 0.2
26/05:30pm 10.4 8.6 7.3 81 1.5 N 6 7 3 4 1024.9 1025.1 0.2
26/05:00pm 10.5 8.5 7.1 79 1.6 N 7 9 4 5 1024.5 1024.7 0.2
26/04:30pm 11.2 10.5 6.8 74 2.1 CALM 0 0 0 0 1024.4 1024.6 0.2
26/04:00pm 11.3 9.5 7.1 75 2.0 SE 6 9 3 5 1024.4 1024.6 0.2
26/03:30pm 11.3 9.4 7.4 77 1.9 SE 7 13 4 7 1024.2 1024.4 0.2
26/03:00pm 11.5 10.9 7.3 75 2.0 CALM 0 0 0 0 1024.1 1024.3 0.2
26/02:30pm 11.3 10.7 7.6 78 1.8 CALM 0 0 0 0 1023.9 1024.1 0.2
26/02:00pm 10.8 10.2 7.5 80 1.6 CALM 0 0 0 0 1023.9 1024.1 0.2
26/01:30pm 10.2 6.1 7.7 84 1.2 SW 19 24 10 13 1024.0 1024.2 0.2
26/01:00pm 11.2 9.3 7.5 78 1.8 WSW 7 11 4 6 1024.0 1024.2 0.2
26/12:30pm 10.9 7.9 7.8 81 1.5 SW 13 17 7 9 1024.0 1024.2 0.2
26/12:00pm 12.4 9.1 6.5 67 2.8 WSW 13 17 7 9 1024.2 1024.4 0.0
26/11:30am 12.0 8.8 6.8 70 2.5 SW 13 17 7 9 1024.4 1024.6 0.0
26/11:00am 11.1 7.2 6.9 75 2.0 SW 17 19 9 10 1024.5 1024.7 0.0
26/10:30am 10.6 7.0 6.8 77 1.8 WSW 15 20 8 11 1024.4 1024.6 0.0
26/10:00am 9.9 5.9 6.5 79 1.6 WSW 17 22 9 12 1024.2 1024.4 0.0
26/09:30am 9.9 6.2 6.5 79 1.6 W 15 20 8 11 1023.7 1023.9 0.0
26/09:00am 8.6 4.4 5.7 82 1.3 WNW 17 24 9 13 1023.2 1023.4 0.4
26/08:30am 7.8 3.8 5.1 83 1.2 NW 15 17 8 9 1022.9 1023.1 0.4
26/08:00am 6.8 2.8 4.7 86 0.9 WNW 15 19 8 10 1022.4 1022.6 0.4
26/07:30am 6.9 2.9 4.8 86 0.9 WNW 15 17 8 9 1022.1 1022.3 0.4
26/07:00am 6.4 2.0 4.8 89 0.7 WNW 17 26 9 14 1021.8 1022.0 0.4
26/06:30am 5.9 2.2 4.5 91 0.6 WNW 13 15 7 8 1021.4 1021.6 0.4
26/06:00am 6.2 2.5 4.6 89 0.7 WNW 13 13 7 7 1020.9 1021.1 0.4
26/05:30am 5.9 2.6 4.5 91 0.6 WNW 11 13 6 7 1020.7 1020.8 0.4
26/05:00am 7.2 4.5 5.4 88 0.8 NW 9 11 5 6 1020.6 1020.7 0.4
26/04:30am 7.1 3.6 5.5 89 0.7 NW 13 17 7 9 1020.3 1020.4 0.4
26/04:00am 8.6 4.9 6.2 85 1.1 NW 15 17 8 9 1020.0 1020.1 0.4
26/03:30am 8.2 5.4 6.9 91 0.6 WNW 11 13 6 7 1020.0 1020.1 0.4
26/03:00am 8.1 5.7 6.8 91 0.6 WNW 9 11 5 6 1020.1 1020.2 0.4
26/02:30am 8.6 5.8 7.1 90 0.7 WNW 11 13 6 7 1019.9 1020.0 0.4
26/02:00am 8.6 5.7 6.7 88 0.9 NW 11 13 6 7 1019.5 1019.6 0.4
26/01:30am 8.7 5.8 6.5 86 1.0 NW 11 13 6 7 1019.1 1019.2 0.4
26/01:00am 8.9 5.7 7.0 88 0.9 NNW 13 15 7 8 1019.1 1019.2 0.4
26/12:30am 9.2 5.8 7.5 89 0.8 NNW 15 19 8 10 1019.1 1019.2 0.4
26/12:00am 8.7 5.7 7.6 93 0.5 N 13 17 7 9 1019.2 1019.3 0.4
 
Date/Time
EST
Temp
°C
App
Temp
°C
Dew
Point
°C
Rel
Hum
%
Delta-T
°C
Wind Press
QNH
hPa
Press
MSL
hPa
Rain since
9am
mm
Dir  Spd
km/h
Gust
km/h
Spd
kts
Gust
kts
25/11:30pm 9.2 6.3 8.0 92 0.6 NNW 13 17 7 9 1019.0 1019.1 0.4
25/11:00pm 9.2 6.2 7.7 90 0.7 WNW 13 15 7 8 1019.1 1019.2 0.4
25/10:30pm 9.2 6.9 7.5 89 0.8 WNW 9 11 5 6 1019.1 1019.2 0.4
25/10:00pm 9.0 6.7 7.5 90 0.7 WSW 9 13 5 7 1019.0 1019.1 0.4
25/09:53pm 9.1 6.5 7.6 90 0.7 WSW 11 15 6 8 1018.9 1019.0 0.4
25/09:30pm 9.2 6.2 7.5 89 0.8 SW 13 26 7 14 1018.8 1018.9 0.2
25/09:24pm 9.2 6.9 7.5 89 0.8 W 9 13 5 7 1018.8 1018.9 0.2
25/09:00pm 9.9 7.5 7.2 83 1.3 NNW 9 13 5 7 1018.2 1018.3 0.0
25/08:30pm 10.4 7.8 6.1 75 2.0 NW 9 11 5 6 1018.1 1018.2 0.0
25/08:00pm 10.9 7.0 5.5 69 2.5 NNW 15 19 8 10 1017.5 1017.7 0.0
25/07:30pm 11.1 6.3 5.5 68 2.6 NNW 20 35 11 19 1017.1 1017.3 0.0
25/07:00pm 11.1 6.2 5.0 66 2.8 NNW 20 28 11 15 1016.7 1016.9 0.0
25/06:30pm 11.1 7.1 4.7 64 2.9 NNW 15 22 8 12 1016.4 1016.6 0.0
25/06:00pm 11.3 7.2 4.2 61 3.2 NNW 15 20 8 11 1016.1 1016.3 0.0
25/05:30pm 11.9 7.7 3.9 58 3.6 NW 15 20 8 11 1015.8 1016.0 0.0
25/05:00pm 12.0 7.1 4.0 58 3.6 NW 19 28 10 15 1015.8 1016.0 0.0
25/04:30pm 12.2 8.5 4.3 58 3.6 NW 13 17 7 9 1015.7 1015.9 0.0
25/04:00pm 12.5 8.8 4.4 58 3.7 NW 13 19 7 10 1015.5 1015.7 0.0
25/03:30pm 12.4 7.9 4.3 57 3.7 NW 17 20 9 11 1015.4 1015.6 0.0
25/03:00pm 12.2 8.5 4.3 58 3.6 NW 13 19 7 10 1015.3 1015.5 0.0
25/02:30pm 12.2 7.4 4.6 59 3.5 NW 19 26 10 14 1015.3 1015.5 0.0
25/02:00pm 12.3 6.9 4.4 58 3.6 NW 22 30 12 16 1015.3 1015.5 0.0
25/01:30pm 12.6 6.8 4.5 58 3.7 NW 24 32 13 17 1015.5 1015.7 0.0
25/01:00pm 12.8 6.5 3.7 54 4.1 NW 26 37 14 20 1015.6 1015.8 0.0
25/12:30pm 13.2 7.4 4.5 55 4.0 NNW 24 33 13 18 1015.9 1016.1 0.0
25/12:00pm 11.7 5.5 4.2 60 3.4 NNW 26 37 14 20 1016.4 1016.6 0.0
25/11:30am 12.3 6.1 4.1 57 3.7 NNW 26 37 14 20 1016.8 1017.0 0.0
25/11:00am 11.5 6.4 3.9 59 3.4 NNW 20 37 11 20 1017.0 1017.2 0.0
25/10:30am 10.5 5.0 4.0 64 2.9 NNW 22 32 12 17 1017.5 1017.7 0.0
25/10:00am 9.5 3.2 3.5 66 2.6 N 26 35 14 19 1017.7 1017.9 0.0
25/09:30am 8.5 2.0 2.9 68 2.4 N 26 33 14 18 1017.6 1017.8 0.0
25/09:00am 8.1 1.7 3.4 72 2.0 N 26 33 14 18 1017.6 1017.8 0.0
25/08:30am 8.1 1.3 3.2 71 2.1 N 28 35 15 19 1017.1 1017.3 0.0
25/08:00am 7.1 0.6 2.8 74 1.8 N 26 32 14 17 1017.4 1017.6 0.0
25/07:30am 6.8 0.7 2.5 74 1.8 N 24 30 13 16 1017.0 1017.2 0.0
25/07:00am 6.6 0.5 2.5 75 1.7 N 24 30 13 16 1016.9 1017.1 0.0
25/06:30am 6.8 1.4 2.2 72 1.9 N 20 24 11 13 1016.8 1017.0 0.0
25/06:00am 6.6 0.3 1.7 71 2.0 N 24 28 13 15 1016.6 1016.8 0.0
25/05:30am 5.6 0.4 2.2 79 1.4 N 19 20 10 11 1016.7 1016.9 0.0
25/05:00am 7.0 2.0 1.3 67 2.3 NNW 17 20 9 11 1016.7 1016.9 0.0
25/04:30am 6.5 1.5 1.3 69 2.1 N 17 19 9 10 1016.9 1017.1 0.0
25/04:00am 7.0 2.4 1.3 67 2.3 N 15 17 8 9 1016.9 1017.1 0.0
25/03:30am 7.1 1.8 1.7 68 2.2 NNW 19 24 10 13 1017.0 1017.2 0.0
25/03:00am 7.5 3.3 1.4 65 2.5 NNW 13 15 7 8 1017.0 1017.2 0.0
25/02:30am 7.8 2.8 1.4 64 2.6 NNW 17 20 9 11 1017.0 1017.2 0.0
25/02:00am 8.0 2.6 1.1 62 2.8 NNW 19 22 10 12 1017.0 1017.2 0.0
25/01:30am 8.6 3.2 1.0 59 3.1 NNW 19 26 10 14 1017.0 1017.2 0.0
25/01:00am 8.4 3.8 1.6 62 2.8 NNW 15 17 8 9 1017.1 1017.3 0.0
25/12:30am 8.5 4.2 0.9 59 3.1 NW 13 17 7 9 1017.5 1017.7 0.0
25/12:00am 8.5 4.1 0.6 57 3.2 NW 13 17 7 9 1017.4 1017.6 0.0
 
Date/Time
EST
Temp
°C
App
Temp
°C
Dew
Point
°C
Rel
Hum
%
Delta-T
°C
Wind Press
QNH
hPa
Press
MSL
hPa
Rain since
9am
mm
Dir  Spd
km/h
Gust
km/h
Spd
kts
Gust
kts
24/11:30pm 8.5 4.1 0.2 56 3.3 N 13 17 7 9 1017.3 1017.5 0.0
24/11:00pm 8.5 3.7 0.2 56 3.3 NNW 15 20 8 11 1017.6 1017.8 0.0
24/10:30pm 8.5 3.7 0.2 56 3.3 N 15 17 8 9 1017.8 1018.0 0.0
24/10:00pm 8.6 4.5 0.1 55 3.4 NNW 11 15 6 8 1018.1 1018.2 0.0
24/09:30pm 8.4 3.6 0.1 56 3.3 WNW 15 19 8 10 1018.3 1018.4 0.0
24/09:00pm 8.5 4.1 0.6 57 3.2 WNW 13 17 7 9 1018.4 1018.5 0.0
24/08:30pm 8.7 4.3 0.5 56 3.3 WNW 13 17 7 9 1018.4 1018.5 0.0
24/08:00pm 9.0 4.3 0.6 55 3.4 NW 15 22 8 12 1018.4 1018.5 0.0
24/07:30pm 8.9 4.6 1.1 58 3.2 NW 13 17 7 9 1018.3 1018.4 0.0
24/07:00pm 8.4 4.4 3.0 69 2.3 WNW 13 13 7 7 1018.1 1018.2 0.0
24/06:30pm 8.8 4.8 3.0 67 2.5 WNW 13 15 7 8 1017.9 1018.1 0.0
24/06:00pm 9.1 5.1 2.8 64 2.7 W 13 17 7 9 1017.8 1018.0 0.0
24/05:30pm 9.2 6.0 2.9 65 2.7 WNW 9 11 5 6 1017.8 1018.0 0.0
24/05:00pm 9.8 5.7 2.3 59 3.2 WSW 13 17 7 9 1017.7 1017.9 0.0
24/04:30pm 10.0 6.2 1.7 56 3.5 W 11 13 6 7 1017.4 1017.6 0.0
24/04:00pm 9.7 5.6 2.1 59 3.2 W 13 13 7 7 1017.3 1017.5 0.0
24/03:30pm 10.6 6.8 1.6 53 3.8 WNW 11 15 6 8 1017.3 1017.5 0.0
24/03:00pm 11.2 8.1 1.2 50 4.2 W 7 13 4 7 1017.3 1017.5 0.0
24/02:30pm 10.7 6.0 1.1 51 4.0 SW 15 19 8 10 1017.2 1017.4 0.0
24/02:00pm 10.9 6.5 0.5 48 4.3 WSW 13 15 7 8 1017.4 1017.6 0.0
24/01:30pm 11.1 6.4 1.1 50 4.2 SSW 15 22 8 12 1017.6 1017.8 0.0
24/01:00pm 11.5 7.5 0.4 46 4.6 WSW 11 17 6 9 1017.9 1018.1 0.0
24/12:30pm 10.8 5.8 1.6 53 3.9 SW 17 24 9 13 1018.2 1018.3 0.0
24/12:00pm 10.7 6.1 1.4 52 3.9 WSW 15 20 8 11 1018.4 1018.5 0.0

Latest Capital City Observations: Canberra | Sydney | Melbourne | Brisbane | Adelaide | Perth | Hobart | Darwin

Other Formats:

Comma delimited format used in spreadsheet applications
http://www.bom.gov.au/fwo/IDV60901/IDV60901.94866.axf

JavaScript Object Notation format (JSON) in row-major order
http://www.bom.gov.au/fwo/IDV60901/IDV60901.94866.json